createdAt,value
2022-09-28T00:00:32.614Z,0.00
2022-09-28T00:01:32.640Z,0.00
2022-09-28T00:02:32.660Z,0.00
2022-09-28T00:03:32.586Z,0.00
2022-09-28T00:04:32.565Z,0.00
2022-09-28T00:05:32.564Z,0.00
2022-09-28T00:06:32.546Z,0.00
2022-09-28T00:07:32.555Z,0.00
2022-09-28T00:08:32.527Z,0.00
2022-09-28T00:09:32.516Z,0.00
2022-09-28T00:10:32.506Z,0.00
2022-09-28T00:11:32.514Z,0.00
2022-09-28T00:12:32.495Z,0.00
2022-09-28T00:13:32.474Z,0.00
2022-09-28T00:14:32.459Z,0.00
2022-09-28T00:15:32.456Z,0.00
2022-09-28T00:16:32.611Z,0.00
2022-09-28T00:17:32.439Z,0.00
2022-09-28T00:18:32.419Z,0.00
2022-09-28T00:19:32.409Z,0.00
2022-09-28T00:20:32.400Z,0.00
2022-09-28T00:21:32.391Z,0.00
2022-09-28T00:22:32.391Z,0.00
2022-09-28T00:23:32.373Z,0.00
2022-09-28T00:24:32.353Z,0.00
2022-09-28T00:25:32.352Z,0.00
2022-09-28T00:26:32.341Z,0.00
2022-09-28T00:27:32.342Z,0.00
2022-09-28T00:28:32.315Z,0.00
2022-09-28T00:29:32.307Z,0.00
2022-09-28T00:30:32.292Z,0.00
2022-09-28T00:31:32.303Z,0.00
2022-09-28T00:32:32.283Z,0.00
2022-09-28T00:33:32.273Z,0.00
2022-09-28T00:34:32.244Z,0.00
2022-09-28T00:35:32.244Z,0.00
2022-09-28T00:36:32.233Z,0.00
2022-09-28T00:37:32.235Z,0.00
2022-09-28T00:38:32.215Z,0.00
2022-09-28T00:39:32.205Z,0.00
2022-09-28T00:40:32.224Z,0.00
2022-09-28T00:41:32.184Z,0.00
2022-09-28T00:42:32.176Z,0.00
2022-09-28T00:43:32.157Z,0.00
2022-09-28T00:44:32.148Z,0.00
2022-09-28T00:45:32.177Z,0.00
2022-09-28T00:46:32.125Z,0.00
2022-09-28T00:47:32.129Z,0.00
2022-09-28T00:48:32.107Z,0.00
2022-09-28T00:49:32.097Z,0.00
2022-09-28T00:50:32.079Z,0.00
2022-09-28T00:51:32.082Z,0.00
2022-09-28T00:52:32.079Z,0.00
2022-09-28T00:53:32.056Z,0.00
2022-09-28T00:54:32.040Z,0.00
2022-09-28T00:55:32.034Z,0.00
2022-09-28T00:56:32.024Z,0.00
2022-09-28T00:57:32.030Z,0.00
2022-09-28T00:58:32.001Z,0.00
2022-09-28T00:59:31.992Z,0.00
2022-09-28T01:00:32.088Z,0.00
2022-09-28T01:01:31.966Z,0.00
2022-09-28T01:02:32.056Z,0.00
2022-09-28T01:03:31.944Z,0.00
2022-09-28T01:04:31.933Z,0.00
2022-09-28T01:05:31.922Z,0.00
2022-09-28T01:06:31.926Z,0.00
2022-09-28T01:07:31.927Z,0.00
2022-09-28T01:08:31.897Z,0.00
2022-09-28T01:09:31.875Z,0.00
2022-09-28T01:10:31.875Z,0.00
2022-09-28T01:11:31.876Z,0.00
2022-09-28T01:12:31.856Z,0.00
2022-09-28T01:13:31.837Z,0.00
2022-09-28T01:14:31.836Z,0.00
2022-09-28T01:15:31.826Z,0.00
2022-09-28T01:16:31.885Z,0.00
2022-09-28T01:17:31.795Z,0.00
2022-09-28T01:18:31.786Z,0.00
2022-09-28T01:19:31.777Z,0.00
2022-09-28T01:20:31.766Z,0.00
2022-09-28T01:21:31.758Z,0.00
2022-09-28T01:22:31.758Z,0.00
2022-09-28T01:23:31.728Z,0.00
2022-09-28T01:24:31.745Z,0.00
2022-09-28T01:25:31.709Z,0.00
2022-09-28T01:26:31.700Z,0.00
2022-09-28T01:27:31.712Z,0.00
2022-09-28T01:28:31.688Z,0.00
2022-09-28T01:29:31.670Z,0.00
2022-09-28T01:30:31.661Z,0.00
2022-09-28T01:31:31.705Z,0.00
2022-09-28T01:32:31.662Z,0.00
2022-09-28T01:33:31.642Z,0.00
2022-09-28T01:34:31.622Z,0.00
2022-09-28T01:35:31.602Z,0.00
2022-09-28T01:36:31.614Z,0.00
2022-09-28T01:37:31.591Z,0.00
2022-09-28T01:38:31.582Z,0.00
2022-09-28T01:39:31.563Z,0.00
2022-09-28T01:40:31.604Z,0.00
2022-09-28T01:41:31.554Z,0.00
2022-09-28T01:42:31.537Z,0.00
2022-09-28T01:43:31.525Z,0.00
2022-09-28T01:44:31.518Z,0.00
2022-09-28T01:45:31.567Z,0.00
2022-09-28T01:46:31.508Z,0.00
2022-09-28T01:47:31.476Z,0.00
2022-09-28T01:48:31.476Z,0.00
2022-09-28T01:49:31.466Z,0.00
2022-09-28T01:50:31.458Z,0.00
2022-09-28T01:51:31.461Z,0.00
2022-09-28T01:52:31.437Z,0.00
2022-09-28T01:53:31.418Z,0.00
2022-09-28T01:54:31.411Z,0.00
2022-09-28T01:55:31.399Z,0.00
2022-09-28T01:56:31.409Z,0.00
2022-09-28T01:57:31.378Z,0.00
2022-09-28T01:58:31.368Z,0.00
2022-09-28T01:59:31.351Z,0.00
2022-09-28T02:00:31.386Z,0.00
2022-09-28T02:01:31.332Z,0.00
2022-09-28T02:02:31.425Z,0.00
2022-09-28T02:03:31.310Z,0.00
2022-09-28T02:04:31.300Z,0.00
2022-09-28T02:05:31.291Z,0.00
2022-09-28T02:06:31.280Z,0.00
2022-09-28T02:07:31.280Z,0.00
2022-09-28T02:08:31.278Z,0.00
2022-09-28T02:09:33.795Z,0.00
2022-09-28T02:10:31.242Z,0.00
2022-09-28T02:11:31.228Z,0.00
2022-09-28T02:12:31.236Z,0.00
2022-09-28T02:13:31.211Z,0.00
2022-09-28T02:14:31.194Z,0.00
2022-09-28T02:15:31.184Z,0.00
2022-09-28T02:16:31.285Z,0.00
2022-09-28T02:17:31.176Z,0.00
2022-09-28T02:18:31.154Z,0.00
2022-09-28T02:19:31.153Z,0.00
2022-09-28T02:20:31.143Z,0.00
2022-09-28T02:21:31.119Z,0.00
2022-09-28T02:22:31.126Z,0.00
2022-09-28T02:23:31.109Z,0.00
2022-09-28T02:24:31.096Z,0.00
2022-09-28T02:25:31.077Z,0.00
2022-09-28T02:26:31.067Z,0.00
2022-09-28T02:27:31.066Z,0.00
2022-09-28T02:28:31.057Z,0.00
2022-09-28T02:29:31.037Z,0.00
2022-09-28T02:30:31.029Z,0.00
2022-09-28T02:31:31.042Z,0.00
2022-09-28T02:32:31.036Z,0.00
2022-09-28T02:33:30.999Z,0.00
2022-09-28T02:34:30.990Z,0.00
2022-09-28T02:35:30.969Z,0.00
2022-09-28T02:36:30.967Z,0.00
2022-09-28T02:37:30.970Z,0.00
2022-09-28T02:38:30.943Z,0.00
2022-09-28T02:39:30.931Z,0.00
2022-09-28T02:40:30.979Z,0.00
2022-09-28T02:41:30.911Z,0.00
2022-09-28T02:42:30.919Z,0.00
2022-09-28T02:43:30.901Z,0.00
2022-09-28T02:44:30.881Z,0.00
2022-09-28T02:45:30.902Z,0.00
2022-09-28T02:46:30.864Z,0.00
2022-09-28T02:47:30.863Z,0.00
2022-09-28T02:48:43.022Z,0.00
2022-09-28T02:49:31.969Z,0.00
2022-09-28T02:50:30.814Z,0.00
2022-09-28T02:51:30.804Z,0.00
2022-09-28T02:52:30.815Z,0.00
2022-09-28T02:53:30.794Z,0.00
2022-09-28T02:54:30.776Z,0.00
2022-09-28T02:55:30.766Z,0.00
2022-09-28T02:56:30.772Z,0.00
2022-09-28T02:57:30.755Z,0.00
2022-09-28T02:58:30.736Z,0.00
2022-09-28T02:59:30.727Z,0.00
2022-09-28T03:00:30.707Z,0.00
2022-09-28T03:01:30.698Z,0.00
2022-09-28T03:02:30.755Z,0.00
2022-09-28T03:03:30.678Z,0.00
2022-09-28T03:04:30.668Z,0.00
2022-09-28T03:05:30.659Z,0.00
2022-09-28T03:06:30.647Z,0.00
2022-09-28T03:07:30.650Z,0.00
2022-09-28T03:08:30.629Z,0.00
2022-09-28T03:09:30.611Z,0.00
2022-09-28T03:10:30.610Z,0.00
2022-09-28T03:11:30.591Z,0.00
2022-09-28T03:12:30.609Z,0.00
2022-09-28T03:13:30.586Z,0.00
2022-09-28T03:14:30.581Z,0.00
2022-09-28T03:15:30.552Z,0.00
2022-09-28T03:16:30.616Z,0.00
2022-09-28T03:17:30.543Z,0.00
2022-09-28T03:18:30.540Z,0.00
2022-09-28T03:19:30.512Z,0.00
2022-09-28T03:20:30.513Z,0.00
2022-09-28T03:21:30.482Z,0.00
2022-09-28T03:22:30.492Z,0.00
2022-09-28T03:23:30.473Z,0.00
2022-09-28T03:24:30.463Z,0.00
2022-09-28T03:25:30.444Z,0.00
2022-09-28T03:26:30.434Z,0.00
2022-09-28T03:27:30.444Z,0.00
2022-09-28T03:28:30.415Z,0.00
2022-09-28T03:29:30.407Z,0.00
2022-09-28T03:30:30.396Z,0.00
2022-09-28T03:31:30.455Z,0.00
2022-09-28T03:32:30.396Z,0.00
2022-09-28T03:33:30.368Z,0.00
2022-09-28T03:34:30.357Z,0.00
2022-09-28T03:35:30.346Z,0.00
2022-09-28T03:36:30.336Z,0.00
2022-09-28T03:37:30.338Z,0.00
2022-09-28T03:38:30.317Z,0.00
2022-09-28T03:39:30.299Z,0.00
2022-09-28T03:40:30.326Z,0.00
2022-09-28T03:41:30.279Z,0.00
2022-09-28T03:42:30.288Z,0.00
2022-09-28T03:43:30.259Z,0.00
2022-09-28T03:44:30.249Z,0.00
2022-09-28T03:45:30.291Z,0.00
2022-09-28T03:46:30.268Z,0.00
2022-09-28T03:47:30.230Z,0.00
2022-09-28T03:48:32.682Z,0.00
2022-09-28T03:49:30.191Z,0.00
2022-09-28T03:50:30.184Z,0.00
2022-09-28T03:51:30.172Z,0.00
2022-09-28T03:52:30.192Z,0.00
2022-09-28T03:53:30.161Z,0.00
2022-09-28T03:54:30.163Z,0.00
2022-09-28T03:55:30.133Z,0.00
2022-09-28T03:56:30.141Z,0.00
2022-09-28T03:57:30.124Z,0.00
2022-09-28T03:58:30.102Z,0.00
2022-09-28T03:59:30.084Z,0.00
2022-09-28T04:00:30.094Z,0.00
2022-09-28T04:01:30.112Z,0.00
2022-09-28T04:02:30.149Z,0.00
2022-09-28T04:03:30.044Z,0.00
2022-09-28T04:04:30.036Z,0.00
2022-09-28T04:05:30.025Z,0.00
2022-09-28T04:06:30.017Z,0.00
2022-09-28T04:07:31.173Z,0.00
2022-09-28T04:08:30.006Z,0.00
2022-09-28T04:09:29.987Z,0.00
2022-09-28T04:10:29.977Z,0.00
2022-09-28T04:11:42.833Z,0.00
2022-09-28T04:12:30.968Z,0.00
2022-09-28T04:13:29.938Z,0.00
2022-09-28T04:14:29.938Z,0.00
2022-09-28T04:15:29.918Z,0.00
2022-09-28T04:16:29.961Z,0.00
2022-09-28T04:17:29.928Z,0.00
2022-09-28T04:18:29.909Z,0.00
2022-09-28T04:19:29.880Z,0.00
2022-09-28T04:20:29.870Z,0.00
2022-09-28T04:21:29.860Z,0.00
2022-09-28T04:22:29.861Z,0.00
2022-09-28T04:23:29.833Z,0.00
2022-09-28T04:24:29.830Z,0.00
2022-09-28T04:25:29.811Z,0.00
2022-09-28T04:26:29.812Z,0.00
2022-09-28T04:27:29.811Z,0.00
2022-09-28T04:28:29.781Z,0.00
2022-09-28T04:29:29.772Z,0.00
2022-09-28T04:30:29.762Z,0.00
2022-09-28T04:31:29.817Z,0.00
2022-09-28T04:32:29.752Z,0.00
2022-09-28T04:33:29.723Z,0.00
2022-09-28T04:34:34.495Z,0.00
2022-09-28T04:35:30.706Z,0.00
2022-09-28T04:36:29.704Z,0.00
2022-09-28T04:37:29.703Z,0.00
2022-09-28T04:38:48.806Z,0.00
2022-09-28T04:39:30.664Z,0.00
2022-09-28T04:40:29.723Z,0.00
2022-09-28T04:41:29.665Z,0.00
2022-09-28T04:42:29.656Z,0.00
2022-09-28T04:43:29.669Z,0.00
2022-09-28T04:44:29.616Z,0.00
2022-09-28T04:45:29.652Z,0.00
2022-09-28T04:46:29.599Z,0.00
2022-09-28T04:47:29.600Z,0.00
2022-09-28T04:48:29.578Z,0.00
2022-09-28T04:49:29.559Z,0.00
2022-09-28T04:50:29.559Z,0.00
2022-09-28T04:51:29.540Z,0.00
2022-09-28T04:52:29.549Z,0.00
2022-09-28T04:53:29.520Z,0.00
2022-09-28T04:54:29.541Z,0.00
2022-09-28T04:55:29.500Z,0.00
2022-09-28T04:56:29.495Z,0.00
2022-09-28T04:57:29.491Z,0.00
2022-09-28T04:58:29.471Z,0.00
2022-09-28T04:59:29.469Z,0.00
2022-09-28T05:00:29.453Z,0.00
2022-09-28T05:01:29.475Z,0.00
2022-09-28T05:02:29.512Z,0.00
2022-09-28T05:03:29.432Z,0.00
2022-09-28T05:04:29.411Z,0.00
2022-09-28T05:05:29.392Z,0.00
2022-09-28T05:06:29.344Z,1.00
2022-09-28T05:07:29.314Z,1.00
2022-09-28T05:08:29.374Z,0.00
2022-09-28T05:09:29.353Z,0.00
2022-09-28T05:10:29.345Z,0.00
2022-09-28T05:11:29.327Z,0.00
2022-09-28T05:12:29.322Z,0.00
2022-09-28T05:13:29.296Z,2.00
2022-09-28T05:14:29.246Z,1.00
2022-09-28T05:15:29.253Z,1.00
2022-09-28T05:16:29.263Z,1.00
2022-09-28T05:17:29.218Z,1.00
2022-09-28T05:18:29.268Z,0.00
2022-09-28T05:19:29.208Z,2.00
2022-09-28T05:20:29.180Z,2.00
2022-09-28T05:21:29.177Z,2.00
2022-09-28T05:22:29.168Z,2.00
2022-09-28T05:23:29.169Z,3.00
2022-09-28T05:24:29.139Z,3.00
2022-09-28T05:25:29.128Z,10.00
2022-09-28T05:26:29.119Z,6.00
2022-09-28T05:27:29.109Z,7.00
2022-09-28T05:28:29.113Z,12.00
2022-09-28T05:29:32.241Z,12.00
2022-09-28T05:30:29.070Z,10.00
2022-09-28T05:31:29.139Z,7.00
2022-09-28T05:32:29.050Z,9.00
2022-09-28T05:33:29.060Z,9.00
2022-09-28T05:34:29.041Z,9.00
2022-09-28T05:35:29.031Z,7.00
2022-09-28T05:36:29.013Z,11.00
2022-09-28T05:37:29.005Z,10.00
2022-09-28T05:38:29.017Z,13.00
2022-09-28T05:39:28.990Z,10.00
2022-09-28T05:40:29.044Z,5.00
2022-09-28T05:41:28.962Z,5.00
2022-09-28T05:42:28.943Z,7.00
2022-09-28T05:43:28.964Z,9.00
2022-09-28T05:44:28.925Z,5.00
2022-09-28T05:45:28.974Z,5.00
2022-09-28T05:46:29.023Z,5.00
2022-09-28T05:47:28.897Z,11.00
2022-09-28T05:48:28.905Z,12.00
2022-09-28T05:49:28.877Z,17.00
2022-09-28T05:50:28.872Z,21.00
2022-09-28T05:51:28.873Z,24.00
2022-09-28T05:52:28.833Z,24.00
2022-09-28T05:53:28.848Z,29.00
2022-09-28T05:54:28.830Z,29.00
2022-09-28T05:55:28.875Z,33.00
2022-09-28T05:56:28.798Z,38.00
2022-09-28T05:57:28.791Z,41.00
2022-09-28T05:58:28.798Z,44.00
2022-09-28T05:59:28.778Z,48.00
2022-09-28T06:00:28.787Z,48.00
2022-09-28T06:01:28.788Z,45.00
2022-09-28T06:02:28.802Z,43.00
2022-09-28T06:03:28.762Z,41.00
2022-09-28T06:04:28.710Z,41.00
2022-09-28T06:05:28.710Z,41.00
2022-09-28T06:06:28.691Z,42.00
2022-09-28T06:07:28.691Z,44.00
2022-09-28T06:08:28.707Z,44.00
2022-09-28T06:09:28.671Z,48.00
2022-09-28T06:10:28.756Z,54.00
2022-09-28T06:11:28.653Z,70.00
2022-09-28T06:12:28.632Z,77.00
2022-09-28T06:13:28.633Z,78.00
2022-09-28T06:14:28.614Z,71.00
2022-09-28T06:15:28.603Z,67.00
2022-09-28T06:16:28.667Z,59.00
2022-09-28T06:17:28.586Z,60.00
2022-09-28T06:18:28.586Z,54.00
2022-09-28T06:19:28.565Z,57.00
2022-09-28T06:20:28.574Z,63.00
2022-09-28T06:21:28.535Z,71.00
2022-09-28T06:22:28.526Z,85.00
2022-09-28T06:23:28.536Z,95.00
2022-09-28T06:24:28.506Z,103.00
2022-09-28T06:25:28.496Z,115.00
2022-09-28T06:26:28.487Z,123.00
2022-09-28T06:27:28.477Z,138.00
2022-09-28T06:28:28.477Z,155.00
2022-09-28T06:29:28.457Z,182.00
2022-09-28T06:30:28.515Z,198.00
2022-09-28T06:31:28.437Z,204.00
2022-09-28T06:32:28.420Z,221.00
2022-09-28T06:33:28.429Z,227.00
2022-09-28T06:34:28.401Z,217.00
2022-09-28T06:35:28.393Z,211.00
2022-09-28T06:36:28.381Z,211.00
2022-09-28T06:37:28.370Z,214.00
2022-09-28T06:38:28.370Z,220.00
2022-09-28T06:39:28.353Z,224.00
2022-09-28T06:40:28.395Z,253.00
2022-09-28T06:41:28.392Z,266.00
2022-09-28T06:42:28.362Z,272.00
2022-09-28T06:43:33.555Z,269.00
2022-09-28T06:44:29.293Z,277.00
2022-09-28T06:45:28.284Z,293.00
2022-09-28T06:46:28.295Z,310.00
2022-09-28T06:47:28.272Z,313.00
2022-09-28T06:48:28.263Z,315.00
2022-09-28T06:49:28.244Z,326.00
2022-09-28T06:50:28.225Z,347.00
2022-09-28T06:51:28.224Z,335.00
2022-09-28T06:52:28.204Z,301.00
2022-09-28T06:53:28.214Z,238.00
2022-09-28T06:54:28.195Z,505.00
2022-09-28T06:55:28.198Z,430.00
2022-09-28T06:56:32.569Z,518.00
2022-09-28T06:57:28.164Z,377.00
2022-09-28T06:58:28.177Z,327.00
2022-09-28T06:59:28.136Z,247.00
2022-09-28T07:00:28.134Z,212.00
2022-09-28T07:01:28.142Z,483.00
2022-09-28T07:02:28.151Z,372.00
2022-09-28T07:03:28.128Z,163.00
2022-09-28T07:04:28.089Z,318.00
2022-09-28T07:05:28.078Z,349.00
2022-09-28T07:06:28.059Z,280.00
2022-09-28T07:07:28.049Z,288.00
2022-09-28T07:08:28.049Z,472.00
2022-09-28T07:09:32.960Z,453.00
2022-09-28T07:10:29.020Z,285.00
2022-09-28T07:11:28.010Z,128.00
2022-09-28T07:12:28.000Z,255.00
2022-09-28T07:14:45.905Z,413.00
2022-09-28T07:15:28.991Z,449.00
2022-09-28T07:16:35.498Z,436.00
2022-09-28T07:17:29.162Z,223.00
2022-09-28T07:18:27.968Z,207.00
2022-09-28T07:19:27.933Z,120.00
2022-09-28T07:20:27.913Z,84.00
2022-09-28T07:21:30.572Z,143.00
2022-09-28T07:22:41.245Z,184.00
2022-09-28T07:23:28.904Z,116.00
2022-09-28T07:24:27.872Z,75.00
2022-09-28T07:25:27.864Z,137.00
2022-09-28T07:26:27.845Z,125.00
2022-09-28T07:27:29.022Z,116.00
2022-09-28T07:28:27.845Z,95.00
2022-09-28T07:29:27.816Z,83.00
2022-09-28T07:30:28.169Z,91.00
2022-09-28T07:31:27.806Z,104.00
2022-09-28T07:32:27.845Z,118.00
2022-09-28T07:33:27.795Z,90.00
2022-09-28T07:34:27.770Z,97.00
2022-09-28T07:35:27.757Z,94.00
2022-09-28T07:36:27.759Z,75.00
2022-09-28T07:37:27.739Z,112.00
2022-09-28T07:38:27.738Z,286.00
2022-09-28T07:39:27.718Z,431.00
2022-09-28T07:40:27.764Z,404.00
2022-09-28T07:41:27.697Z,315.00
2022-09-28T07:42:27.679Z,228.00
2022-09-28T07:43:27.692Z,246.00
2022-09-28T07:44:27.660Z,292.00
2022-09-28T07:45:27.658Z,234.00
2022-09-28T07:46:27.676Z,236.00
2022-09-28T07:47:32.313Z,313.00
2022-09-28T07:48:28.633Z,301.00
2022-09-28T07:49:27.622Z,181.00
2022-09-28T07:50:27.602Z,104.00
2022-09-28T07:51:27.592Z,116.00
2022-09-28T07:52:27.572Z,164.00
2022-09-28T07:53:27.606Z,171.00
2022-09-28T07:54:27.554Z,180.00
2022-09-28T07:55:27.558Z,198.00
2022-09-28T07:56:27.534Z,163.00
2022-09-28T07:57:27.525Z,112.00
2022-09-28T07:58:27.541Z,106.00
2022-09-28T07:59:27.505Z,153.00
2022-09-28T08:00:29.836Z,263.00
2022-09-28T08:01:28.515Z,279.00
2022-09-28T08:02:27.496Z,215.00
2022-09-28T08:03:27.480Z,162.00
2022-09-28T08:04:27.446Z,168.00
2022-09-28T08:05:27.446Z,150.00
2022-09-28T08:06:27.426Z,180.00
2022-09-28T08:07:27.427Z,169.00
2022-09-28T08:08:27.417Z,146.00
2022-09-28T08:09:27.398Z,157.00
2022-09-28T08:10:27.387Z,267.00
2022-09-28T08:11:27.386Z,287.00
2022-09-28T08:12:27.358Z,334.00
2022-09-28T08:13:27.526Z,320.00
2022-09-28T08:14:27.339Z,177.00
2022-09-28T08:15:27.338Z,162.00
2022-09-28T08:16:27.390Z,153.00
2022-09-28T08:17:27.320Z,172.00
2022-09-28T08:18:27.311Z,170.00
2022-09-28T08:19:27.291Z,377.00
2022-09-28T08:20:27.283Z,852.00
2022-09-28T08:21:27.271Z,674.00
2022-09-28T08:22:27.263Z,413.00
2022-09-28T08:23:27.264Z,562.00
2022-09-28T08:24:27.243Z,833.00
2022-09-28T08:25:27.232Z,902.00
2022-09-28T08:26:27.252Z,614.00
2022-09-28T08:27:27.213Z,372.00
2022-09-28T08:28:27.223Z,271.00
2022-09-28T08:29:27.184Z,489.00
2022-09-28T08:30:27.213Z,902.00
2022-09-28T08:31:27.174Z,1096.00
2022-09-28T08:32:27.155Z,730.00
2022-09-28T08:33:27.146Z,618.00
2022-09-28T08:34:27.145Z,602.00
2022-09-28T08:35:27.126Z,500.00
2022-09-28T08:36:27.135Z,360.00
2022-09-28T08:37:27.104Z,266.00
2022-09-28T08:38:27.087Z,244.00
2022-09-28T08:39:27.096Z,291.00
2022-09-28T08:40:27.125Z,299.00
2022-09-28T08:41:27.068Z,288.00
2022-09-28T08:42:27.048Z,236.00
2022-09-28T08:43:27.038Z,378.00
2022-09-28T08:44:27.048Z,479.00
2022-09-28T08:45:27.019Z,326.00
2022-09-28T08:46:27.334Z,193.00
2022-09-28T08:47:26.999Z,190.00
2022-09-28T08:48:26.981Z,397.00
2022-09-28T08:49:27.107Z,1037.00
2022-09-28T08:50:26.980Z,920.00
2022-09-28T08:51:26.960Z,693.00
2022-09-28T08:52:26.940Z,1069.00
2022-09-28T08:53:26.941Z,1066.00
2022-09-28T08:54:26.931Z,931.00
2022-09-28T08:55:26.912Z,487.00
2022-09-28T08:56:26.892Z,606.00
2022-09-28T08:57:26.903Z,400.00
2022-09-28T08:58:26.892Z,745.00
2022-09-28T08:59:26.903Z,987.00
2022-09-28T09:00:26.853Z,913.00
2022-09-28T09:01:26.918Z,567.00
2022-09-28T09:02:26.907Z,589.00
2022-09-28T09:03:26.834Z,368.00
2022-09-28T09:04:26.828Z,579.00
2022-09-28T09:05:26.808Z,719.00
2022-09-28T09:06:26.795Z,501.00
2022-09-28T09:07:26.786Z,712.00
2022-09-28T09:08:26.775Z,801.00
2022-09-28T09:09:26.777Z,661.00
2022-09-28T09:10:26.754Z,809.00
2022-09-28T09:11:26.757Z,954.00
2022-09-28T09:12:26.736Z,702.00
2022-09-28T09:13:26.727Z,178.00
2022-09-28T09:14:26.756Z,521.00
2022-09-28T09:15:26.698Z,805.00
2022-09-28T09:16:26.742Z,590.00
2022-09-28T09:17:26.678Z,510.00
2022-09-28T09:18:26.670Z,790.00
2022-09-28T09:19:26.689Z,521.00
2022-09-28T09:20:26.647Z,893.00
2022-09-28T09:21:26.651Z,1248.00
2022-09-28T09:22:26.629Z,1478.00
2022-09-28T09:23:26.619Z,1589.00
2022-09-28T09:24:26.621Z,1502.00
2022-09-28T09:25:26.603Z,1083.00
2022-09-28T09:26:26.581Z,1386.00
2022-09-28T09:27:26.591Z,1563.00
2022-09-28T09:28:26.561Z,950.00
2022-09-28T09:29:26.576Z,863.00
2022-09-28T09:30:29.331Z,843.00
2022-09-28T09:31:26.577Z,893.00
2022-09-28T09:32:26.533Z,1049.00
2022-09-28T09:33:26.525Z,1180.00
2022-09-28T09:34:26.524Z,1196.00
2022-09-28T09:35:30.110Z,1554.00
2022-09-28T09:36:26.484Z,1394.00
2022-09-28T09:37:26.466Z,1238.00
2022-09-28T09:38:26.507Z,2596.00
2022-09-28T09:39:26.465Z,1604.00
2022-09-28T09:40:26.519Z,1607.00
2022-09-28T09:41:26.426Z,1278.00
2022-09-28T09:42:26.437Z,2803.00
2022-09-28T09:43:29.364Z,1717.00
2022-09-28T09:44:27.415Z,706.00
2022-09-28T09:45:26.387Z,710.00
2022-09-28T09:46:26.448Z,829.00
2022-09-28T09:47:26.367Z,692.00
2022-09-28T09:48:26.377Z,466.00
2022-09-28T09:49:26.358Z,471.00
2022-09-28T09:50:26.339Z,598.00
2022-09-28T09:51:26.319Z,636.00
2022-09-28T09:52:26.366Z,503.00
2022-09-28T09:53:26.300Z,380.00
2022-09-28T09:54:26.310Z,267.00
2022-09-28T09:55:29.865Z,189.00
2022-09-28T09:56:26.279Z,214.00
2022-09-28T09:57:26.271Z,317.00
2022-09-28T09:58:26.259Z,397.00
2022-09-28T09:59:26.252Z,471.00
2022-09-28T10:00:26.232Z,476.00
2022-09-28T10:01:26.250Z,448.00
2022-09-28T10:02:26.263Z,349.00
2022-09-28T10:03:26.196Z,371.00
2022-09-28T10:04:26.217Z,5746.00
2022-09-28T10:05:26.174Z,7322.00
2022-09-28T10:06:26.183Z,1757.00
2022-09-28T10:07:26.157Z,657.00
2022-09-28T10:08:26.144Z,1140.00
2022-09-28T10:09:26.153Z,4608.00
2022-09-28T10:10:26.127Z,758.00
2022-09-28T10:11:26.203Z,653.00
2022-09-28T10:12:26.104Z,685.00
2022-09-28T10:13:26.090Z,525.00
2022-09-28T10:14:26.094Z,595.00
2022-09-28T10:15:26.078Z,9324.00
2022-09-28T10:16:26.107Z,13116.00
2022-09-28T10:17:26.049Z,5537.00
2022-09-28T10:18:26.038Z,2038.00
2022-09-28T10:19:26.040Z,11504.00
2022-09-28T10:20:26.028Z,1640.00
2022-09-28T10:21:26.001Z,1030.00
2022-09-28T10:22:25.994Z,848.00
2022-09-28T10:23:25.983Z,943.00
2022-09-28T10:24:25.991Z,909.00
2022-09-28T10:25:25.961Z,618.00
2022-09-28T10:26:25.951Z,468.00
2022-09-28T10:27:25.945Z,805.00
2022-09-28T10:28:25.973Z,4145.00
2022-09-28T10:29:25.932Z,4059.00
2022-09-28T10:30:25.914Z,1852.00
2022-09-28T10:31:25.893Z,7515.00
2022-09-28T10:32:25.893Z,8614.00
2022-09-28T10:33:25.881Z,2363.00
2022-09-28T10:34:25.884Z,3222.00
2022-09-28T10:35:25.878Z,1173.00
2022-09-28T10:36:25.846Z,670.00
2022-09-28T10:37:25.834Z,668.00
2022-09-28T10:38:25.844Z,607.00
2022-09-28T10:39:25.825Z,777.00
2022-09-28T10:40:25.861Z,915.00
2022-09-28T10:41:25.795Z,704.00
2022-09-28T10:42:25.789Z,469.00
2022-09-28T10:43:25.808Z,374.00
2022-09-28T10:44:25.777Z,306.00
2022-09-28T10:45:25.751Z,351.00
2022-09-28T10:46:25.818Z,457.00
2022-09-28T10:47:25.728Z,583.00
2022-09-28T10:48:25.718Z,664.00
2022-09-28T10:49:25.730Z,690.00
2022-09-28T10:50:25.722Z,669.00
2022-09-28T10:51:25.690Z,606.00
2022-09-28T10:52:25.691Z,525.00
2022-09-28T10:53:25.671Z,521.00
2022-09-28T10:54:25.684Z,566.00
2022-09-28T10:55:25.651Z,641.00
2022-09-28T10:56:25.651Z,637.00
2022-09-28T10:57:25.623Z,523.00
2022-09-28T10:58:25.622Z,404.00
2022-09-28T10:59:25.625Z,347.00
2022-09-28T11:00:25.613Z,347.00
2022-09-28T11:01:25.641Z,389.00
2022-09-28T11:02:25.605Z,452.00
2022-09-28T11:03:25.564Z,517.00
2022-09-28T11:04:25.575Z,567.00
2022-09-28T11:05:25.544Z,641.00
2022-09-28T11:06:25.537Z,774.00
2022-09-28T11:07:25.523Z,789.00
2022-09-28T11:08:25.516Z,731.00
2022-09-28T11:09:29.797Z,584.00
2022-09-28T11:10:26.487Z,472.00
2022-09-28T11:11:25.478Z,405.00
2022-09-28T11:12:25.481Z,365.00
2022-09-28T11:13:25.459Z,342.00
2022-09-28T11:14:25.468Z,337.00
2022-09-28T11:15:25.440Z,345.00
2022-09-28T11:16:25.502Z,358.00
2022-09-28T11:17:25.418Z,386.00
2022-09-28T11:18:25.417Z,413.00
2022-09-28T11:19:25.410Z,409.00
2022-09-28T11:20:27.762Z,417.00
2022-09-28T11:21:25.370Z,435.00
2022-09-28T11:22:25.368Z,460.00
2022-09-28T11:23:25.351Z,535.00
2022-09-28T11:24:25.710Z,614.00
2022-09-28T11:25:25.336Z,589.00
2022-09-28T11:26:25.325Z,560.00
2022-09-28T11:27:25.337Z,988.00
2022-09-28T11:28:25.303Z,6481.00
2022-09-28T11:29:25.302Z,4260.00
2022-09-28T11:30:25.308Z,1745.00
2022-09-28T11:31:25.262Z,844.00
2022-09-28T11:32:25.264Z,1200.00
2022-09-28T11:33:25.245Z,8412.00
2022-09-28T11:34:36.493Z,1971.00
2022-09-28T11:35:26.225Z,6498.00
2022-09-28T11:36:25.215Z,15808.00
2022-09-28T11:37:25.205Z,3046.00
2022-09-28T11:38:25.206Z,14961.00
2022-09-28T11:39:25.196Z,3896.00
2022-09-28T11:40:25.244Z,11289.00
2022-09-28T11:41:25.157Z,11588.00
2022-09-28T11:42:25.157Z,11334.00
2022-09-28T11:43:25.140Z,10748.00
2022-09-28T11:44:28.241Z,11163.00
2022-09-28T11:45:26.118Z,13822.00
2022-09-28T11:46:25.173Z,4160.00
2022-09-28T11:47:25.169Z,975.00
2022-09-28T11:48:25.090Z,2396.00
2022-09-28T11:49:25.095Z,772.00
2022-09-28T11:50:25.137Z,704.00
2022-09-28T11:51:25.063Z,761.00
2022-09-28T11:52:25.041Z,4774.00
2022-09-28T11:53:25.032Z,1406.00
2022-09-28T11:54:25.052Z,11258.00
2022-09-28T11:55:25.014Z,12283.00
2022-09-28T11:56:25.024Z,9740.00
2022-09-28T11:57:24.995Z,10857.00
2022-09-28T11:58:24.983Z,14331.00
2022-09-28T11:59:24.987Z,2137.00
2022-09-28T12:00:24.968Z,18412.00
2022-09-28T12:01:24.945Z,3676.00
2022-09-28T12:02:25.034Z,12060.00
2022-09-28T12:03:25.024Z,11984.00
2022-09-28T12:04:24.936Z,11625.00
2022-09-28T12:05:24.916Z,11189.00
2022-09-28T12:06:24.896Z,12419.00
2022-09-28T12:07:24.897Z,11404.00
2022-09-28T12:08:24.891Z,13138.00
2022-09-28T12:09:24.879Z,1665.00
2022-09-28T12:10:24.859Z,998.00
2022-09-28T12:11:24.840Z,3702.00
2022-09-28T12:12:24.842Z,938.00
2022-09-28T12:13:24.823Z,2687.00
2022-09-28T12:14:24.841Z,13625.00
2022-09-28T12:15:24.800Z,3469.00
2022-09-28T12:16:53.533Z,2420.00
2022-09-28T12:17:25.851Z,1446.00
2022-09-28T12:18:24.782Z,1055.00
2022-09-28T12:19:24.773Z,669.00
2022-09-28T12:20:24.753Z,579.00
2022-09-28T12:21:24.733Z,673.00
2022-09-28T12:22:24.735Z,616.00
2022-09-28T12:23:24.734Z,500.00
2022-09-28T12:24:24.725Z,374.00
2022-09-28T12:25:24.698Z,309.00
2022-09-28T12:26:24.688Z,330.00
2022-09-28T12:27:24.676Z,333.00
2022-09-28T12:28:24.676Z,283.00
2022-09-28T12:29:24.777Z,616.00
2022-09-28T12:30:24.668Z,1343.00
2022-09-28T12:31:24.718Z,10728.00
2022-09-28T12:32:24.628Z,11448.00
2022-09-28T12:33:24.619Z,9870.00
2022-09-28T12:34:24.606Z,16779.00
2022-09-28T12:35:24.599Z,8131.00
2022-09-28T12:36:24.587Z,1808.00
2022-09-28T12:37:24.572Z,1141.00
2022-09-28T12:38:24.561Z,700.00
2022-09-28T12:39:40.989Z,389.00
2022-09-28T12:40:25.639Z,333.00
2022-09-28T12:41:24.524Z,268.00
2022-09-28T12:42:24.538Z,193.00
2022-09-28T12:43:24.503Z,149.00
2022-09-28T12:44:24.504Z,171.00
2022-09-28T12:45:24.496Z,237.00
2022-09-28T12:46:24.581Z,293.00
2022-09-28T12:47:24.466Z,321.00
2022-09-28T12:48:24.456Z,334.00